Time;durP1;ratioP1;P1;durP2;ratioP2;P2;SDS_P1;SDS_P2;PMS_P1;PMS_P2;Temp;Humidity;BMP_temperature;BMP_pressure;BME280_temperature;BME280_humidity;BME280_pressure;Samples;Min_cycle;Max_cycle;Signal;HPM_P1;HPM_P2
2023/04/27 00:00:19;;;;;;;7.68;4.68;;;;;;;;;;477941;28;1079;-72
2023/04/27 00:00:36;;;;;;;8.32;4.60;;;;;;;;;;481766;28;1134;-73
2023/04/27 00:01:09;;;;;;;8.35;4.63;;;;;;;;;;480913;28;1147;-72
2023/04/27 00:01:52;;;;;;;8.55;4.55;;;;;;;;;;481126;28;1090;-72
2023/04/27 00:02:08;;;;;;;8.13;4.80;;;;;;;;;;477170;28;1131;-72
2023/04/27 00:02:33;;;;;;;7.20;4.80;;;;;;;;;;482259;28;2143;-72
2023/04/27 00:03:04;;;;;;;7.78;4.40;;;;;;;;;;481917;28;1408;-72
2023/04/27 00:03:33;;;;;;;7.25;4.60;;;;;;;;;;480942;28;1204;-73
2023/04/27 00:04:12;;;;;;;8.95;4.32;;;;;;;;;;481005;28;1294;-72
2023/04/27 00:04:38;;;;;;;7.95;4.50;;;;;;;;;;480681;28;1140;-73
2023/04/27 00:04:54;;;;;;;7.65;4.45;;;;;;;;;;479520;28;1693;-72
2023/04/27 00:05:26;;;;;;;6.85;4.43;;;;;;;;;;481381;28;1131;-73
2023/04/27 00:06:00;;;;;;;8.48;4.90;;;;;;;;;;479196;28;1150;-72
2023/04/27 00:06:37;;;;;;;;;;;;;;;;;;;;;
2023/04/27 00:06:54;;;;;;;7.95;4.45;;;;;;;;;;480078;28;1115;-72
2023/04/27 00:07:18;;;;;;;6.53;4.60;;;;;;;;;;477800;28;1177;-72
2023/04/27 00:07:37;;;;;;;5.20;4.05;;;;;;;;;;480882;28;1028;-72
2023/04/27 00:07:53;;;;;;;6.38;4.22;;;;;;;;;;480357;28;1253;-71
2023/04/27 00:08:24;;;;;;;7.28;4.20;;;;;;;;;;481386;28;1250;-72
2023/04/27 00:08:49;;;;;;;6.90;4.15;;;;;;;;;;478637;28;1061;-72
2023/04/27 00:09:16;;;;;;;;;;;;;;;;;;;;;
2023/04/27 00:09:38;;;;;;;6.82;4.50;;;;;;;;;;477662;28;1129;-72
2023/04/27 00:10:03;;;;;;;7.63;4.60;;;;;;;;;;481970;28;1357;-72
2023/04/27 00:10:51;;;;;;;6.85;4.40;;;;;;;;;;478385;28;1271;-71
2023/04/27 00:11:16;;;;;;;7.95;4.50;;;;;;;;;;473788;29;1315;-72
2023/04/27 00:12:00;;;;;;;6.35;4.18;;;;;;;;;;482294;28;1212;-72
2023/04/27 00:12:35;;;;;;;;;;;;;;;;;;;;;
2023/04/27 00:14:50;;;;;;;6.95;4.15;;;;;;;;;;495240;28;893;-72
2023/04/27 00:15:07;;;;;;;7.32;4.60;;;;;;;;;;494698;28;1236;-72
2023/04/27 00:16:52;;;;;;;6.65;4.32;;;;;;;;;;489490;29;1546;-73
2023/04/27 00:17:14;;;;;;;7.50;4.38;;;;;;;;;;468125;29;1678;-72
2023/04/27 00:17:36;;;;;;;7.53;4.82;;;;;;;;;;472255;28;1555;-72
2023/04/27 00:18:18;;;;;;;8.25;4.60;;;;;;;;;;475603;28;1723;-73
2023/04/27 00:18:52;;;;;;;7.15;4.50;;;;;;;;;;468854;29;1104;-72
2023/04/27 00:19:09;;;;;;;6.82;4.45;;;;;;;;;;477534;28;1104;-72
2023/04/27 00:19:25;;;;;;;5.43;4.13;;;;;;;;;;480606;28;1211;-72
2023/04/27 00:19:41;;;;;;;5.32;3.97;;;;;;;;;;480490;28;1184;-72
2023/04/27 00:20:29;;;;;;;5.65;3.97;;;;;;;;;;479659;28;1155;-72
2023/04/27 00:20:48;;;;;;;7.15;4.50;;;;;;;;;;473092;29;1472;-72
2023/04/27 00:21:26;;;;;;;6.82;4.32;;;;;;;;;;472770;28;1177;-73
2023/04/27 00:22:04;;;;;;;;;;;;;;;;;;;;;
2023/04/27 00:22:23;;;;;;;8.50;4.60;;;;;;;;;;479163;28;1190;-73
2023/04/27 00:22:55;;;;;;;7.55;4.53;;;;;;;;;;480029;28;1119;-72
2023/04/27 00:23:33;;;;;;;7.15;4.60;;;;;;;;;;481658;28;1181;-72
2023/04/27 00:24:14;;;;;;;8.38;4.60;;;;;;;;;;485050;28;1323;-72
2023/04/27 00:24:42;;;;;;;6.85;4.32;;;;;;;;;;485098;28;1772;-72
2023/04/27 00:25:22;;;;;;;5.90;4.20;;;;;;;;;;479595;28;1396;-72
2023/04/27 00:25:46;;;;;;;7.00;4.32;;;;;;;;;;480892;28;1211;-72
2023/04/27 00:26:15;;;;;;;8.50;4.70;;;;;;;;;;483822;28;1247;-71
2023/04/27 00:26:40;;;;;;;7.45;4.70;;;;;;;;;;479273;28;1336;-73
2023/04/27 00:26:56;;;;;;;6.18;4.70;;;;;;;;;;477858;28;1215;-73
2023/04/27 00:27:19;;;;;;;7.00;4.40;;;;;;;;;;482966;28;1283;-72
2023/04/27 00:27:49;;;;;;;6.15;4.32;;;;;;;;;;481092;28;1194;-73
2023/04/27 00:28:18;;;;;;;6.93;4.47;;;;;;;;;;488018;28;1189;-72
2023/04/27 00:28:40;;;;;;;6.88;4.32;;;;;;;;;;481515;28;1181;-72
2023/04/27 00:29:08;;;;;;;8.52;4.88;;;;;;;;;;476192;28;1301;-73
2023/04/27 00:29:41;;;;;;;6.78;4.38;;;;;;;;;;480430;28;1217;-73
2023/04/27 00:30:16;;;;;;;7.10;4.38;;;;;;;;;;478829;28;1439;-72
2023/04/27 00:30:53;;;;;;;8.43;4.72;;;;;;;;;;478424;28;1478;-73
2023/04/27 00:31:20;;;;;;;6.70;4.10;;;;;;;;;;480968;28;1276;-72
2023/04/27 00:31:43;;;;;;;6.70;4.28;;;;;;;;;;481367;28;1770;-72
2023/04/27 00:31:59;;;;;;;6.28;4.30;;;;;;;;;;480508;28;1364;-72
2023/04/27 00:32:26;;;;;;;7.63;4.68;;;;;;;;;;479018;28;1083;-72
2023/04/27 00:32:51;;;;;;;6.95;4.53;;;;;;;;;;484828;28;1281;-72
2023/04/27 00:33:40;;;;;;;;;;;;;;;;;;;;;
2023/04/27 00:34:22;;;;;;;6.30;4.13;;;;;;;;;;475477;28;1300;-72
2023/04/27 00:35:11;;;;;;;;;;;;;;;;;;;;;
2023/04/27 00:40:26;;;;;;;6.15;4.10;;;;;;;;;;484553;29;861;-73
2023/04/27 00:41:00;;;;;;;8.55;4.65;;;;;;;;;;467967;29;1219;-72
2023/04/27 00:41:22;;;;;;;7.70;4.82;;;;;;;;;;466821;29;1208;-72
2023/04/27 00:41:39;;;;;;;7.90;4.60;;;;;;;;;;465594;29;1352;-73
2023/04/27 00:42:24;;;;;;;;;;;;;;;;;;;;;
2023/04/27 00:42:48;;;;;;;7.75;4.40;;;;;;;;;;466464;29;1369;-73
2023/04/27 00:43:17;;;;;;;6.82;4.47;;;;;;;;;;469976;29;1243;-73
2023/04/27 00:43:55;;;;;;;8.88;4.72;;;;;;;;;;464704;29;1210;-73
2023/04/27 00:44:21;;;;;;;6.65;4.35;;;;;;;;;;463001;29;1250;-72
2023/04/27 00:44:42;;;;;;;5.43;4.03;;;;;;;;;;464369;29;1324;-73
2023/04/27 00:45:13;;;;;;;6.57;4.10;;;;;;;;;;465879;29;1349;-73
2023/04/27 00:45:29;;;;;;;6.25;4.20;;;;;;;;;;466131;29;1551;-73
2023/04/27 00:45:53;;;;;;;6.50;4.30;;;;;;;;;;467638;29;1342;-72
2023/04/27 00:46:10;;;;;;;6.13;4.47;;;;;;;;;;464342;29;1109;-73
2023/04/27 00:46:29;;;;;;;6.75;4.75;;;;;;;;;;467785;29;1283;-74
2023/04/27 00:46:48;;;;;;;6.82;4.90;;;;;;;;;;464883;29;1159;-73
2023/04/27 00:47:07;;;;;;;7.03;4.85;;;;;;;;;;468105;29;1236;-73
2023/04/27 00:47:29;;;;;;;7.32;4.28;;;;;;;;;;462912;29;1221;-72
2023/04/27 00:47:48;;;;;;;6.82;4.30;;;;;;;;;;467833;29;1861;-73
2023/04/27 00:48:14;;;;;;;6.82;4.30;;;;;;;;;;467710;29;1477;-72
2023/04/27 00:48:43;;;;;;;;;;;;;;;;;;;;;
2023/04/27 00:49:03;;;;;;;6.53;4.20;;;;;;;;;;462626;29;1021;-72
2023/04/27 00:49:25;;;;;;;6.35;4.15;;;;;;;;;;466095;29;1315;-72
2023/04/27 00:49:43;;;;;;;6.38;4.10;;;;;;;;;;460997;29;1249;-73
2023/04/27 00:50:00;;;;;;;5.90;4.00;;;;;;;;;;462782;29;1205;-73
2023/04/27 00:50:41;;;;;;;5.35;4.30;;;;;;;;;;464782;29;1368;-73
2023/04/27 00:51:01;;;;;;;6.85;4.35;;;;;;;;;;466911;29;1216;-73
2023/04/27 00:51:27;;;;;;;;;;;;;;;;;;;;;
2023/04/27 00:51:58;;;;;;;7.53;4.68;;;;;;;;;;465436;29;1271;-73
2023/04/27 00:52:17;;;;;;;7.78;4.63;;;;;;;;;;465913;29;1116;-73
2023/04/27 00:52:57;;;;;;;8.48;4.90;;;;;;;;;;467218;29;1179;-74
2023/04/27 00:53:18;;;;;;;6.65;4.40;;;;;;;;;;466347;29;1739;-72
2023/04/27 00:53:38;;;;;;;7.80;4.63;;;;;;;;;;467775;29;1207;-72
2023/04/27 00:54:21;;;;;;;7.10;4.60;;;;;;;;;;462514;29;1141;-73
2023/04/27 00:54:40;;;;;;;8.02;4.70;;;;;;;;;;464980;29;1941;-72
2023/04/27 00:54:59;;;;;;;7.68;4.60;;;;;;;;;;463429;29;1218;-73
2023/04/27 00:55:31;;;;;;;;;;;;;;;;;;;;;
2023/04/27 00:55:54;;;;;;;7.68;4.53;;;;;;;;;;466166;29;1223;-72
2023/04/27 00:56:19;;;;;;;8.55;4.57;;;;;;;;;;467450;29;1341;-73
2023/04/27 00:56:47;;;;;;;;;;;;;;;;;;;;;
2023/04/27 00:57:04;;;;;;;6.55;4.57;;;;;;;;;;468549;29;1090;-72
2023/04/27 00:57:38;;;;;;;;;;;;;;;;;;;;;
2023/04/27 00:58:15;;;;;;;;;;;;;;;;;;;;;
2023/04/27 00:58:48;;;;;;;7.80;4.68;;;;;;;;;;466625;29;1137;-73
2023/04/27 00:59:09;;;;;;;8.43;4.60;;;;;;;;;;465071;29;1460;-73
2023/04/27 00:59:39;;;;;;;8.25;4.60;;;;;;;;;;467867;29;1235;-72
2023/04/27 01:00:15;;;;;;;;;;;;;;;;;;;;;
2023/04/27 01:00:44;;;;;;;;;;;;;;;;;;;;;
2023/04/27 01:01:12;;;;;;;5.95;4.47;;;;;;;;;;470116;29;1200;-72
2023/04/27 01:01:57;;;;;;;5.80;4.20;;;;;;;;;;466086;29;1285;-74
2023/04/27 01:02:16;;;;;;;5.68;4.03;;;;;;;;;;471963;29;1307;-73
2023/04/27 01:02:47;;;;;;;6.40;4.30;;;;;;;;;;467146;29;1263;-72
2023/04/27 01:03:07;;;;;;;6.80;4.45;;;;;;;;;;466947;29;1228;-72
2023/04/27 01:03:31;;;;;;;6.30;4.20;;;;;;;;;;468096;29;1338;-73
2023/04/27 01:03:50;;;;;;;6.93;4.45;;;;;;;;;;468930;29;1141;-72
2023/04/27 01:04:08;;;;;;;7.72;4.75;;;;;;;;;;464802;29;1166;-72
2023/04/27 01:04:37;;;;;;;7.30;4.85;;;;;;;;;;466831;29;1237;-72
2023/04/27 01:04:57;;;;;;;7.07;4.63;;;;;;;;;;469919;29;1180;-73
2023/04/27 01:05:28;;;;;;;6.72;4.70;;;;;;;;;;463737;29;1391;-73
2023/04/27 01:06:16;;;;;;;9.35;4.97;;;;;;;;;;467739;29;1300;-72
2023/04/27 01:06:35;;;;;;;9.48;4.63;;;;;;;;;;461701;29;1417;-72
2023/04/27 01:06:53;;;;;;;7.57;4.50;;;;;;;;;;469517;29;1137;-72
2023/04/27 01:07:35;;;;;;;6.70;4.50;;;;;;;;;;467969;29;1276;-72
2023/04/27 01:08:05;;;;;;;6.45;4.80;;;;;;;;;;471503;29;1235;-72
2023/04/27 01:08:27;;;;;;;8.15;4.80;;;;;;;;;;468353;29;1216;-73
2023/04/27 01:08:48;;;;;;;7.15;4.90;;;;;;;;;;470257;29;1224;-73
2023/04/27 01:09:08;;;;;;;8.32;4.60;;;;;;;;;;467845;29;1097;-73
2023/04/27 01:09:24;;;;;;;8.30;4.70;;;;;;;;;;464723;29;1114;-73
2023/04/27 01:09:54;;;;;;;7.97;4.60;;;;;;;;;;467368;29;1230;-73
2023/04/27 01:10:18;;;;;;;6.80;4.63;;;;;;;;;;473043;29;1294;-72
2023/04/27 01:10:52;;;;;;;8.65;4.85;;;;;;;;;;469953;29;1294;-72
2023/04/27 01:11:40;;;;;;;8.75;5.13;;;;;;;;;;468066;29;1386;-72
2023/04/27 01:12:05;;;;;;;9.45;5.05;;;;;;;;;;465816;29;2608;-72
2023/04/27 01:12:31;;;;;;;8.15;5.05;;;;;;;;;;465814;29;1114;-72
2023/04/27 01:13:00;;;;;;;8.18;4.90;;;;;;;;;;467711;29;1295;-74
2023/04/27 01:13:31;;;;;;;7.82;4.82;;;;;;;;;;467018;29;1209;-73
2023/04/27 01:14:04;;;;;;;7.82;4.88;;;;;;;;;;468001;29;1295;-72
2023/04/27 01:14:43;;;;;;;7.90;5.00;;;;;;;;;;467961;29;1359;-72
2023/04/27 01:15:02;;;;;;;6.70;4.72;;;;;;;;;;470167;29;1201;-72
2023/04/27 01:16:04;;;;;;;6.75;4.80;;;;;;;;;;468844;29;1155;-72
2023/04/27 01:16:22;;;;;;;5.28;4.25;;;;;;;;;;468035;29;1851;-72
2023/04/27 01:16:45;;;;;;;7.00;4.65;;;;;;;;;;471153;29;1085;-72
2023/04/27 01:17:21;;;;;;;7.75;4.50;;;;;;;;;;473187;29;1592;-72
2023/04/27 01:17:40;;;;;;;5.82;4.53;;;;;;;;;;474074;28;1386;-72
2023/04/27 01:18:04;;;;;;;6.13;4.70;;;;;;;;;;477267;28;1361;-73
2023/04/27 01:18:23;;;;;;;5.40;4.35;;;;;;;;;;477969;28;1154;-72
2023/04/27 01:18:43;;;;;;;5.32;4.13;;;;;;;;;;477971;28;1233;-72
2023/04/27 01:19:09;;;;;;;8.35;4.70;;;;;;;;;;477088;28;1409;-73
2023/04/27 01:20:41;;;;;;;7.55;5.00;;;;;;;;;;488832;28;1288;-73
2023/04/27 01:21:33;;;;;;;7.70;4.65;;;;;;;;;;491032;28;1259;-73
2023/04/27 01:22:25;;;;;;;;;;;;;;;;;;;;;
2023/04/27 01:24:04;;;;;;;5.07;4.10;;;;;;;;;;488961;28;1199;-74
2023/04/27 01:24:27;;;;;;;5.45;4.30;;;;;;;;;;490426;28;1222;-73
2023/04/27 01:24:49;;;;;;;7.80;4.65;;;;;;;;;;478175;28;1995;-72
2023/04/27 01:25:13;;;;;;;7.53;5.00;;;;;;;;;;477541;28;1205;-72
2023/04/27 01:26:52;;;;;;;8.18;5.03;;;;;;;;;;489908;28;1362;-73
2023/04/27 01:26:56;;;;;;;7.55;4.97;;;;;;;;;;486791;29;1286;-73
2023/04/27 01:27:21;;;;;;;6.75;4.43;;;;;;;;;;473042;29;1176;-72
2023/04/27 01:27:37;;;;;;;8.23;5.15;;;;;;;;;;475364;28;1814;-72
2023/04/27 01:28:07;;;;;;;9.27;5.28;;;;;;;;;;472062;29;1188;-73
2023/04/27 01:28:33;;;;;;;8.60;4.97;;;;;;;;;;471664;29;1104;-73
2023/04/27 01:29:23;;;;;;;8.07;5.05;;;;;;;;;;474950;29;1140;-73
2023/04/27 01:29:51;;;;;;;7.95;4.88;;;;;;;;;;465291;29;1196;-73
2023/04/27 01:30:21;;;;;;;7.47;4.72;;;;;;;;;;472924;29;1223;-73
2023/04/27 01:30:37;;;;;;;7.18;4.80;;;;;;;;;;472656;29;1223;-74
2023/04/27 01:30:56;;;;;;;6.78;4.82;;;;;;;;;;475236;29;1412;-73
2023/04/27 01:31:24;;;;;;;8.23;5.03;;;;;;;;;;476239;29;1531;-72
2023/04/27 01:31:49;;;;;;;7.70;4.95;;;;;;;;;;477033;29;1104;-73
2023/04/27 01:32:12;;;;;;;7.28;4.78;;;;;;;;;;475895;29;1320;-73
2023/04/27 01:32:38;;;;;;;6.68;4.65;;;;;;;;;;476938;28;1208;-74
2023/04/27 01:33:18;;;;;;;;;;;;;;;;;;;;;
2023/04/27 01:33:46;;;;;;;7.68;4.70;;;;;;;;;;476008;29;1094;-73
2023/04/27 01:34:11;;;;;;;5.97;4.57;;;;;;;;;;473927;29;1639;-72
2023/04/27 01:34:30;;;;;;;6.97;4.80;;;;;;;;;;475441;28;1714;-72
2023/04/27 01:35:00;;;;;;;8.20;4.90;;;;;;;;;;474094;28;1174;-73
2023/04/27 01:35:22;;;;;;;6.90;4.60;;;;;;;;;;473165;29;1225;-73
2023/04/27 01:35:47;;;;;;;8.48;4.68;;;;;;;;;;481195;29;1168;-73
2023/04/27 01:36:10;;;;;;;7.65;4.70;;;;;;;;;;477916;28;1350;-73
2023/04/27 01:36:56;;;;;;;7.45;4.60;;;;;;;;;;478750;29;1320;-73
2023/04/27 01:37:15;;;;;;;8.10;4.60;;;;;;;;;;470772;29;1740;-73
2023/04/27 01:37:40;;;;;;;6.55;4.30;;;;;;;;;;481770;29;1283;-72
2023/04/27 01:38:09;;;;;;;8.25;4.68;;;;;;;;;;475720;29;1369;-71
2023/04/27 01:38:40;;;;;;;7.82;5.00;;;;;;;;;;470119;29;1717;-72
2023/04/27 01:39:09;;;;;;;9.30;5.00;;;;;;;;;;477679;29;1358;-73
2023/04/27 01:39:48;;;;;;;7.68;5.15;;;;;;;;;;474803;29;1145;-73
2023/04/27 01:40:10;;;;;;;7.85;4.80;;;;;;;;;;463625;29;1106;-73
2023/04/27 01:40:38;;;;;;;6.28;4.68;;;;;;;;;;478889;29;1272;-74
2023/04/27 01:41:08;;;;;;;7.85;4.80;;;;;;;;;;474894;29;1294;-72
2023/04/27 01:41:51;;;;;;;7.13;4.47;;;;;;;;;;472664;29;1147;-72
2023/04/27 01:42:23;;;;;;;7.20;4.55;;;;;;;;;;469111;29;1324;-72
2023/04/27 01:43:03;;;;;;;6.75;4.22;;;;;;;;;;477479;29;1123;-72
2023/04/27 01:43:50;;;;;;;;;;;;;;;;;;;;;
2023/04/27 01:44:35;;;;;;;6.72;4.50;;;;;;;;;;473827;28;1058;-73
2023/04/27 01:45:06;;;;;;;8.18;4.93;;;;;;;;;;483429;28;1140;-73
2023/04/27 01:45:44;;;;;;;5.78;4.53;;;;;;;;;;478148;28;1250;-72
2023/04/27 01:46:25;;;;;;;;;;;;;;;;;;;;;
2023/04/27 01:46:41;;;;;;;6.93;4.47;;;;;;;;;;477468;28;1044;-74
2023/04/27 01:46:57;;;;;;;8.05;4.43;;;;;;;;;;473631;28;1398;-72
2023/04/27 01:47:28;;;;;;;8.10;4.70;;;;;;;;;;472812;28;1211;-72
2023/04/27 01:48:07;;;;;;;8.32;5.00;;;;;;;;;;473161;29;1495;-73
2023/04/27 01:48:32;;;;;;;7.90;4.97;;;;;;;;;;472027;29;1197;-73
2023/04/27 01:48:51;;;;;;;7.30;4.90;;;;;;;;;;479459;28;1601;-73
2023/04/27 01:49:19;;;;;;;5.93;4.85;;;;;;;;;;475419;28;1103;-73
2023/04/27 01:49:40;;;;;;;9.23;5.20;;;;;;;;;;474874;28;1154;-72
2023/04/27 01:50:28;;;;;;;8.25;4.90;;;;;;;;;;475299;29;1135;-72
2023/04/27 01:50:52;;;;;;;8.68;4.95;;;;;;;;;;472640;28;1218;-72
2023/04/27 01:51:08;;;;;;;8.35;4.93;;;;;;;;;;473198;29;1211;-72
2023/04/27 01:51:39;;;;;;;7.57;4.75;;;;;;;;;;471616;29;1226;-73
2023/04/27 01:52:05;;;;;;;;;;;;;;;;;;;;;
2023/04/27 01:52:36;;;;;;;7.18;4.70;;;;;;;;;;469426;29;1135;-72
2023/04/27 01:53:15;;;;;;;8.95;5.15;;;;;;;;;;477012;29;1809;-73
2023/04/27 01:53:44;;;;;;;;;;;;;;;;;;;;;
2023/04/27 01:54:22;;;;;;;8.95;5.20;;;;;;;;;;476360;29;1190;-72
2023/04/27 01:54:44;;;;;;;7.35;4.82;;;;;;;;;;472568;29;1314;-72
2023/04/27 01:55:02;;;;;;;7.40;4.72;;;;;;;;;;474581;28;1687;-73
2023/04/27 01:55:42;;;;;;;7.05;4.72;;;;;;;;;;471782;28;1551;-72
2023/04/27 01:56:04;;;;;;;8.45;4.80;;;;;;;;;;470192;29;1702;-73
2023/04/27 01:56:20;;;;;;;7.53;4.85;;;;;;;;;;473197;29;1295;-73
2023/04/27 01:56:44;;;;;;;6.07;4.95;;;;;;;;;;474681;29;1224;-72
2023/04/27 01:57:14;;;;;;;;;;;;;;;;;;;;;
2023/04/27 01:57:42;;;;;;;7.13;5.07;;;;;;;;;;474663;29;1061;-72
2023/04/27 01:58:03;;;;;;;7.20;5.00;;;;;;;;;;475040;29;1333;-72
2023/04/27 01:58:22;;;;;;;7.03;4.60;;;;;;;;;;470694;29;1247;-72
2023/04/27 01:59:01;;;;;;;7.50;4.70;;;;;;;;;;475518;29;1369;-73
2023/04/27 01:59:28;;;;;;;7.30;5.20;;;;;;;;;;471977;29;1226;-74
2023/04/27 01:59:52;;;;;;;8.77;5.32;;;;;;;;;;473591;29;1241;-73
2023/04/27 02:00:19;;;;;;;;;;;;;;;;;;;;;
2023/04/27 02:00:41;;;;;;;9.00;5.10;;;;;;;;;;478785;28;1163;-73
2023/04/27 02:00:56;;;;;;;6.38;4.53;;;;;;;;;;480763;28;1153;-73
2023/04/27 02:01:30;;;;;;;7.15;4.40;;;;;;;;;;481380;28;1255;-73
2023/04/27 02:01:46;;;;;;;7.15;4.60;;;;;;;;;;482234;28;1166;-73
2023/04/27 02:02:10;;;;;;;8.45;4.80;;;;;;;;;;486094;28;1401;-73
2023/04/27 02:03:00;;;;;;;7.28;4.70;;;;;;;;;;482160;28;1260;-73
2023/04/27 02:03:16;;;;;;;9.02;4.95;;;;;;;;;;479089;28;1181;-72
2023/04/27 02:03:53;;;;;;;;;;;;;;;;;;;;;
2023/04/27 02:04:47;;;;;;;7.07;4.63;;;;;;;;;;481464;28;997;-73
2023/04/27 02:05:10;;;;;;;8.50;4.90;;;;;;;;;;475704;28;1558;-73
2023/04/27 02:05:50;;;;;;;11.15;5.20;;;;;;;;;;478665;28;1098;-72
2023/04/27 02:06:18;;;;;;;7.88;4.95;;;;;;;;;;480417;28;1266;-74
2023/04/27 02:06:37;;;;;;;7.95;4.47;;;;;;;;;;482226;28;1262;-72
2023/04/27 02:06:56;;;;;;;7.47;4.78;;;;;;;;;;482648;28;1242;-72
2023/04/27 02:07:15;;;;;;;7.07;4.93;;;;;;;;;;482838;28;1163;-74
2023/04/27 02:07:36;;;;;;;6.93;4.80;;;;;;;;;;485559;28;1212;-72
2023/04/27 02:07:55;;;;;;;9.05;4.90;;;;;;;;;;486300;28;1296;-72
2023/04/27 02:08:35;;;;;;;7.07;4.78;;;;;;;;;;482235;28;1084;-72
2023/04/27 02:09:01;;;;;;;;;;;;;;;;;;;;;
2023/04/27 02:09:17;;;;;;;7.18;5.00;;;;;;;;;;477544;28;1139;-73
2023/04/27 02:09:37;;;;;;;9.27;5.30;;;;;;;;;;478118;29;1269;-73
2023/04/27 02:10:23;;;;;;;7.68;5.07;;;;;;;;;;480937;28;1837;-73
2023/04/27 02:10:46;;;;;;;8.38;4.82;;;;;;;;;;481363;28;1312;-73
2023/04/27 02:11:05;;;;;;;7.50;4.72;;;;;;;;;;479992;28;1127;-72
2023/04/27 02:11:28;;;;;;;7.50;5.00;;;;;;;;;;479174;28;1169;-71
2023/04/27 02:11:54;;;;;;;8.10;5.05;;;;;;;;;;481643;28;963;-71
2023/04/27 02:12:10;;;;;;;6.70;4.82;;;;;;;;;;481796;28;1532;-73
2023/04/27 02:12:34;;;;;;;6.72;4.82;;;;;;;;;;485423;28;997;-73
2023/04/27 02:13:06;;;;;;;7.40;4.75;;;;;;;;;;481155;28;1473;-72
2023/04/27 02:13:22;;;;;;;8.45;5.20;;;;;;;;;;482064;28;1375;-72
2023/04/27 02:13:38;;;;;;;7.43;5.10;;;;;;;;;;481943;28;1716;-72
2023/04/27 02:14:41;;;;;;;8.65;5.32;;;;;;;;;;479489;28;1244;-71
2023/04/27 02:15:04;;;;;;;6.07;4.45;;;;;;;;;;485401;28;1146;-72
2023/04/27 02:15:25;;;;;;;7.60;4.90;;;;;;;;;;481317;28;1152;-72
2023/04/27 02:15:51;;;;;;;7.72;4.95;;;;;;;;;;480803;28;1389;-73
2023/04/27 02:16:41;;;;;;;7.97;5.00;;;;;;;;;;482871;28;1176;-73
2023/04/27 02:16:57;;;;;;;7.10;4.82;;;;;;;;;;477410;28;1316;-72
2023/04/27 02:17:26;;;;;;;8.38;4.88;;;;;;;;;;478118;28;1981;-72
2023/04/27 02:18:08;;;;;;;6.13;4.47;;;;;;;;;;483326;28;892;-73
2023/04/27 02:18:53;;;;;;;6.57;4.70;;;;;;;;;;484379;28;1867;-73
2023/04/27 02:19:12;;;;;;;8.77;5.00;;;;;;;;;;488534;28;1154;-71
2023/04/27 02:19:29;;;;;;;8.95;4.78;;;;;;;;;;484066;28;1231;-72
2023/04/27 02:19:54;;;;;;;7.38;4.97;;;;;;;;;;484883;28;1379;-73
2023/04/27 02:20:11;;;;;;;7.35;4.90;;;;;;;;;;479613;28;1247;-71
2023/04/27 02:22:01;;;;;;;8.43;5.15;;;;;;;;;;491304;28;1355;-72
2023/04/27 02:23:05;;;;;;;7.45;5.05;;;;;;;;;;492504;28;1119;-72
2023/04/27 02:23:34;;;;;;;8.02;4.82;;;;;;;;;;479892;28;1109;-71
2023/04/27 02:24:20;;;;;;;;;;;;;;;;;;;;;
2023/04/27 02:25:00;;;;;;;7.25;5.05;;;;;;;;;;476598;28;1551;-73
2023/04/27 02:25:17;;;;;;;6.32;4.68;;;;;;;;;;471068;29;1272;-73
2023/04/27 02:25:56;;;;;;;8.55;5.03;;;;;;;;;;478499;28;1369;-72
2023/04/27 02:26:50;;;;;;;;;;;;;;;;;;;;;
2023/04/27 02:27:20;;;;;;;8.38;4.90;;;;;;;;;;479808;28;1182;-72
2023/04/27 02:28:27;;;;;;;7.32;4.93;;;;;;;;;;486778;28;962;-72
2023/04/27 02:28:53;;;;;;;7.70;4.90;;;;;;;;;;481323;28;1298;-72
2023/04/27 02:29:22;;;;;;;5.78;4.88;;;;;;;;;;472731;29;1305;-72
2023/04/27 02:30:02;;;;;;;6.55;4.63;;;;;;;;;;476073;28;1275;-72
2023/04/27 02:30:39;;;;;;;;;;;;;;;;;;;;;
2023/04/27 02:31:24;;;;;;;6.65;4.97;;;;;;;;;;487097;28;1032;-73
2023/04/27 02:32:46;;;;;;;6.93;4.72;;;;;;;;;;480116;28;1150;-72
2023/04/27 02:32:46;;;;;;;5.72;4.20;;;;;;;;;;477727;28;914;-72
2023/04/27 02:33:10;;;;;;;6.88;4.82;;;;;;;;;;488753;28;1536;-72
2023/04/27 02:33:34;;;;;;;8.23;5.40;;;;;;;;;;487144;28;922;-72
2023/04/27 02:34:54;;;;;;;;;;;;;;;;;;;;;
2023/04/27 02:35:15;;;;;;;8.20;4.97;;;;;;;;;;482227;28;1170;-72
2023/04/27 02:35:34;;;;;;;8.98;5.05;;;;;;;;;;481642;28;1223;-72
2023/04/27 02:36:14;;;;;;;9.15;5.13;;;;;;;;;;482695;28;1336;-73
2023/04/27 02:36:32;;;;;;;7.43;5.40;;;;;;;;;;482879;28;899;-73
2023/04/27 02:37:03;;;;;;;7.63;5.32;;;;;;;;;;479325;28;1132;-73
2023/04/27 02:37:45;;;;;;;5.60;4.63;;;;;;;;;;481916;28;1985;-71
2023/04/27 02:38:07;;;;;;;7.65;4.78;;;;;;;;;;482096;28;2198;-73
2023/04/27 02:38:45;;;;;;;8.90;5.32;;;;;;;;;;492349;28;1306;-72
2023/04/27 02:39:10;;;;;;;5.20;4.55;;;;;;;;;;480733;28;1651;-72
2023/04/27 02:39:26;;;;;;;7.10;5.10;;;;;;;;;;480761;28;1372;-73
2023/04/27 02:39:44;;;;;;;6.32;4.82;;;;;;;;;;477525;28;1256;-72
2023/04/27 02:40:01;;;;;;;5.45;4.30;;;;;;;;;;475286;28;1225;-72
2023/04/27 02:41:31;;;;;;;5.63;4.30;;;;;;;;;;480377;28;865;-73
2023/04/27 02:41:57;;;;;;;5.15;3.97;;;;;;;;;;475183;28;1917;-72
2023/04/27 02:42:15;;;;;;;6.90;4.60;;;;;;;;;;471511;29;1254;-72
2023/04/27 02:43:45;;;;;;;6.70;4.70;;;;;;;;;;471038;29;1301;-72
2023/04/27 02:43:59;;;;;;;;;;;;;;;;;;;;;
2023/04/27 02:44:15;;;;;;;5.93;4.22;;;;;;;;;;473359;29;1217;-72
2023/04/27 02:44:34;;;;;;;6.40;4.40;;;;;;;;;;479159;28;1214;-71
2023/04/27 02:45:02;;;;;;;5.88;4.35;;;;;;;;;;477539;28;1082;-72
2023/04/27 02:45:28;;;;;;;7.72;4.55;;;;;;;;;;476943;28;1162;-72
2023/04/27 02:45:49;;;;;;;7.68;5.15;;;;;;;;;;474221;28;1325;-73
2023/04/27 02:47:43;;;;;;;6.40;4.90;;;;;;;;;;468686;29;1153;-72
2023/04/27 02:47:46;;;;;;;5.60;4.68;;;;;;;;;;490283;28;1267;-73
2023/04/27 02:47:59;;;;;;;7.70;5.10;;;;;;;;;;465623;29;1990;-71
2023/04/27 02:48:21;;;;;;;8.07;5.00;;;;;;;;;;470622;29;1248;-72
2023/04/27 02:48:49;;;;;;;8.05;4.85;;;;;;;;;;468436;29;1705;-72
2023/04/27 02:49:10;;;;;;;7.75;4.82;;;;;;;;;;465667;29;1268;-73
2023/04/27 02:49:52;;;;;;;8.20;5.00;;;;;;;;;;467715;29;1292;-72
2023/04/27 02:50:21;;;;;;;6.63;5.50;;;;;;;;;;463816;29;1086;-73
2023/04/27 02:50:49;;;;;;;8.00;5.60;;;;;;;;;;464207;29;1230;-73
2023/04/27 02:51:08;;;;;;;7.95;5.30;;;;;;;;;;466472;29;1148;-72
2023/04/27 02:51:27;;;;;;;8.00;5.47;;;;;;;;;;465564;29;1316;-73
2023/04/27 02:51:46;;;;;;;7.60;5.30;;;;;;;;;;464126;29;1247;-72
2023/04/27 02:52:06;;;;;;;6.85;5.00;;;;;;;;;;465445;29;1955;-73
2023/04/27 02:52:28;;;;;;;6.95;4.85;;;;;;;;;;463426;29;1333;-73
2023/04/27 02:53:00;;;;;;;6.00;4.63;;;;;;;;;;465172;29;1344;-71
2023/04/27 02:53:19;;;;;;;6.40;5.00;;;;;;;;;;466577;29;1008;-71
2023/04/27 02:53:43;;;;;;;6.43;4.72;;;;;;;;;;465601;29;1397;-74
2023/04/27 02:54:20;;;;;;;8.45;5.05;;;;;;;;;;469869;29;1813;-73
2023/04/27 02:55:20;;;;;;;6.65;4.90;;;;;;;;;;466925;29;1327;-73
2023/04/27 02:55:42;;;;;;;6.90;5.00;;;;;;;;;;467852;29;2009;-72
2023/04/27 02:56:01;;;;;;;6.72;4.82;;;;;;;;;;464300;29;1093;-72
2023/04/27 02:56:20;;;;;;;7.38;5.03;;;;;;;;;;463746;29;1155;-73
2023/04/27 02:56:36;;;;;;;7.80;4.82;;;;;;;;;;468427;29;1370;-72
2023/04/27 02:57:04;;;;;;;6.68;4.57;;;;;;;;;;467780;29;1218;-73
2023/04/27 02:57:40;;;;;;;7.18;4.70;;;;;;;;;;463484;29;1437;-72
2023/04/27 02:58:26;;;;;;;8.68;5.38;;;;;;;;;;464732;29;1153;-72
2023/04/27 02:59:03;;;;;;;7.10;5.15;;;;;;;;;;463838;29;1468;-74
2023/04/27 02:59:29;;;;;;;8.38;5.38;;;;;;;;;;461254;29;1947;-73
2023/04/27 03:00:01;;;;;;;7.57;5.10;;;;;;;;;;465318;29;1213;-72
2023/04/27 03:00:17;;;;;;;6.82;4.93;;;;;;;;;;462927;29;1338;-72
2023/04/27 03:00:34;;;;;;;6.85;5.00;;;;;;;;;;464911;29;1220;-73
2023/04/27 03:00:57;;;;;;;7.80;5.05;;;;;;;;;;466445;29;1233;-73
2023/04/27 03:01:17;;;;;;;7.63;5.43;;;;;;;;;;467974;29;1201;-72
2023/04/27 03:01:48;;;;;;;8.63;5.40;;;;;;;;;;466147;29;1200;-72
2023/04/27 03:02:04;;;;;;;6.78;4.97;;;;;;;;;;461691;29;1118;-72
2023/04/27 03:02:26;;;;;;;6.85;5.00;;;;;;;;;;463756;29;1391;-72
2023/04/27 03:02:57;;;;;;;6.85;5.07;;;;;;;;;;465194;29;1118;-71
2023/04/27 03:04:13;;;;;;;8.85;5.40;;;;;;;;;;466743;29;1967;-72
2023/04/27 03:05:00;;;;;;;10.38;5.60;;;;;;;;;;465818;29;1200;-72
2023/04/27 03:05:29;;;;;;;;;;;;;;;;;;;;;
2023/04/27 03:06:11;;;;;;;6.80;5.20;;;;;;;;;;465910;29;1614;-72
2023/04/27 03:07:58;;;;;;;7.80;5.45;;;;;;;;;;464035;29;900;-73
2023/04/27 03:08:45;;;;;;;8.75;5.47;;;;;;;;;;470239;30;1768;-73
2023/04/27 03:09:42;;;;;;;7.43;5.60;;;;;;;;;;469129;30;1797;-72
2023/04/27 03:10:19;;;;;;;7.70;5.45;;;;;;;;;;467701;29;1320;-72
2023/04/27 03:11:14;;;;;;;7.53;5.20;;;;;;;;;;471482;30;1341;-73
2023/04/27 03:12:17;;;;;;;7.53;5.30;;;;;;;;;;453592;29;1841;-71
2023/04/27 03:12:27;;;;;;;8.13;4.90;;;;;;;;;;459763;30;1688;-72
2023/04/27 03:12:53;;;;;;;7.75;4.97;;;;;;;;;;458604;29;1162;-71
2023/04/27 03:13:15;;;;;;;7.43;5.20;;;;;;;;;;455919;30;1256;-73
2023/04/27 03:13:44;;;;;;;;;;;;;;;;;;;;;
2023/04/27 03:14:46;;;;;;;9.15;5.60;;;;;;;;;;458681;29;1721;-72
2023/04/27 03:15:53;;;;;;;8.65;5.57;;;;;;;;;;452305;30;1291;-73
2023/04/27 03:16:27;;;;;;;10.23;5.68;;;;;;;;;;455352;30;1612;-71
2023/04/27 03:16:46;;;;;;;7.93;5.32;;;;;;;;;;454551;30;1311;-73
2023/04/27 03:17:02;;;;;;;8.27;5.80;;;;;;;;;;450219;30;1133;-73
2023/04/27 03:17:47;;;;;;;7.78;5.60;;;;;;;;;;454542;30;1268;-72
2023/04/27 03:18:04;;;;;;;7.20;5.30;;;;;;;;;;451904;30;1527;-71
2023/04/27 03:18:24;;;;;;;7.38;5.63;;;;;;;;;;452493;30;1561;-72
2023/04/27 03:19:05;;;;;;;8.35;5.53;;;;;;;;;;453253;30;1903;-71
2023/04/27 03:19:24;;;;;;;6.57;5.10;;;;;;;;;;447696;30;1288;-73
2023/04/27 03:19:40;;;;;;;8.48;5.22;;;;;;;;;;451424;30;1093;-74
2023/04/27 03:19:58;;;;;;;9.10;5.47;;;;;;;;;;456998;30;1401;-72